Antonito, Colorado
Current Conditions -  °F | °C
As of 1:52 PM on Sunday 21 Dec 2014 (Local Time) from KALS Reporting Station
Clear Clear  
Wind Chill: 39°   Ceiling: Unl
Heat Index: 39°   Visibility: 10mi
Dew Point: 20°   Wind: 0mph
Humidity: 46%   Direction: NA
Pressure: 29.84"   Gusts: NA
Location:  37.08°N, 106.01°W
Report Text: KALS 212052Z AUTO 00000KT 10SM CLR 04/M07 A2984 RMK AO2 SLP124 T00391067 56033
Loading
Personal Weather Stations






























Interactive Weather Map New forecast layout! Learn more

10-Day Weather Forecast

Advertisements
Track Severe Weather on mobile